map of VRK home
Great Circle Mapper logo
VRK - Airport
Location
City:  Varkaus, Finland
ICAO / IATA:EFVR / VRK

Details
Type:Airport (Aerodrome, Airfield)
Use:Public/Civil
Latitude:6210'16"N (62.171111)
Longitude:2752'07"E (27.868611)
Datum:WGS 1984
Elevation:286 ft (87 m)
Runways:1
Longest:6562 × 148 ft (2000 × 45 m), paved

Time
Time Zone:UTC+2 (DST+3)
Local Time:

Weather
METAR:EFVR 192120Z AUTO 00000KT 0250 BCFG FEW055 07/07 Q1018

Related Locations
Nearby:
Farthest:NZWD: 11034 mi / 17758 km
McMurdo Station [Williams Field], Ross Island, AQ

Find:

   beyond  
but within

Other Information
Maps:
NOTAMs:
Links:
Sources:

  
flag of Finland   

Sectional Chart

Flight Planning
at skyvector.com

Satellite Image

Google Maps Satellite View

 

Copyright © 2004-2014 Karl L. Swartz. All rights reserved.
The Great Circle Mapper name and logo are trademarks of the Great Circle Mapper.
All other trademarks mentioned herein belong to their respective owners.
Please see credits for attibutions and further copyright information.

  Follow gcmap on Facebook Follow gcmap on Twitter

hCard Microformat

Geo Microformat